sensor_id;sensor_type;location;lat;lon;timestamp;P1;durP1;ratioP1;P2;durP2;ratioP2
75488;SDS011;64069;46.396;48.102;2023-05-07T00:01:16;48.53;;;18.83;;
75488;SDS011;64069;46.396;48.102;2023-05-07T00:03:42;47.80;;;19.33;;
75488;SDS011;64069;46.396;48.102;2023-05-07T00:06:14;42.60;;;18.98;;
75488;SDS011;64069;46.396;48.102;2023-05-07T00:08:47;41.35;;;16.70;;
75488;SDS011;64069;46.396;48.102;2023-05-07T00:11:12;38.50;;;15.88;;
75488;SDS011;64069;46.396;48.102;2023-05-07T00:13:45;39.60;;;17.00;;
75488;SDS011;64069;46.396;48.102;2023-05-07T00:16:18;42.25;;;17.63;;
75488;SDS011;64069;46.396;48.102;2023-05-07T00:18:44;38.22;;;16.65;;
75488;SDS011;64069;46.396;48.102;2023-05-07T00:21:17;33.53;;;14.88;;
75488;SDS011;64069;46.396;48.102;2023-05-07T00:23:58;27.27;;;13.90;;
75488;SDS011;64069;46.396;48.102;2023-05-07T00:26:30;27.77;;;12.77;;
75488;SDS011;64069;46.396;48.102;2023-05-07T00:28:56;35.28;;;14.93;;
75488;SDS011;64069;46.396;48.102;2023-05-07T00:31:29;36.83;;;14.52;;
75488;SDS011;64069;46.396;48.102;2023-05-07T00:34:01;28.42;;;12.82;;
75488;SDS011;64069;46.396;48.102;2023-05-07T00:36:27;31.40;;;12.82;;
75488;SDS011;64069;46.396;48.102;2023-05-07T00:38:59;34.08;;;12.98;;
75488;SDS011;64069;46.396;48.102;2023-05-07T00:41:34;34.17;;;11.95;;
75488;SDS011;64069;46.396;48.102;2023-05-07T00:44:00;31.60;;;12.90;;
75488;SDS011;64069;46.396;48.102;2023-05-07T00:46:34;33.05;;;12.90;;
75488;SDS011;64069;46.396;48.102;2023-05-07T00:49:07;35.50;;;13.65;;
75488;SDS011;64069;46.396;48.102;2023-05-07T00:51:33;29.17;;;12.27;;
75488;SDS011;64069;46.396;48.102;2023-05-07T00:54:06;29.30;;;11.73;;
75488;SDS011;64069;46.396;48.102;2023-05-07T00:56:33;22.15;;;11.00;;
75488;SDS011;64069;46.396;48.102;2023-05-07T00:59:06;29.48;;;11.30;;
75488;SDS011;64069;46.396;48.102;2023-05-07T01:01:38;24.33;;;11.93;;
75488;SDS011;64069;46.396;48.102;2023-05-07T01:04:04;32.17;;;12.32;;
75488;SDS011;64069;46.396;48.102;2023-05-07T01:06:37;20.15;;;11.35;;
75488;SDS011;64069;46.396;48.102;2023-05-07T01:09:10;27.35;;;11.80;;
75488;SDS011;64069;46.396;48.102;2023-05-07T01:11:37;31.00;;;11.90;;
75488;SDS011;64069;46.396;48.102;2023-05-07T01:14:11;33.75;;;12.77;;
75488;SDS011;64069;46.396;48.102;2023-05-07T01:16:43;26.98;;;12.10;;
75488;SDS011;64069;46.396;48.102;2023-05-07T01:19:09;29.63;;;11.77;;
75488;SDS011;64069;46.396;48.102;2023-05-07T01:21:46;24.65;;;10.63;;
75488;SDS011;64069;46.396;48.102;2023-05-07T01:24:23;27.60;;;11.07;;
75488;SDS011;64069;46.396;48.102;2023-05-07T01:26:56;27.27;;;10.60;;
75488;SDS011;64069;46.396;48.102;2023-05-07T01:29:23;25.08;;;10.45;;
75488;SDS011;64069;46.396;48.102;2023-05-07T01:31:58;26.40;;;10.05;;
75488;SDS011;64069;46.396;48.102;2023-05-07T01:34:32;23.63;;;9.82;;
75488;SDS011;64069;46.396;48.102;2023-05-07T01:37:01;22.38;;;9.98;;
75488;SDS011;64069;46.396;48.102;2023-05-07T01:39:35;19.38;;;9.82;;
75488;SDS011;64069;46.396;48.102;2023-05-07T01:42:10;21.63;;;9.10;;
75488;SDS011;64069;46.396;48.102;2023-05-07T01:44:36;22.42;;;9.43;;
75488;SDS011;64069;46.396;48.102;2023-05-07T01:47:09;19.88;;;8.70;;
75488;SDS011;64069;46.396;48.102;2023-05-07T01:49:42;23.15;;;8.60;;
75488;SDS011;64069;46.396;48.102;2023-05-07T01:52:09;18.33;;;7.75;;
75488;SDS011;64069;46.396;48.102;2023-05-07T01:54:43;19.08;;;8.27;;
75488;SDS011;64069;46.396;48.102;2023-05-07T01:57:16;20.15;;;8.57;;
75488;SDS011;64069;46.396;48.102;2023-05-07T01:59:48;22.05;;;9.02;;
75488;SDS011;64069;46.396;48.102;2023-05-07T02:02:21;19.92;;;9.15;;
75488;SDS011;64069;46.396;48.102;2023-05-07T02:04:56;16.75;;;8.43;;
75488;SDS011;64069;46.396;48.102;2023-05-07T02:07:22;21.35;;;8.50;;
75488;SDS011;64069;46.396;48.102;2023-05-07T02:09:55;20.00;;;9.73;;
75488;SDS011;64069;46.396;48.102;2023-05-07T02:12:27;22.65;;;8.55;;
75488;SDS011;64069;46.396;48.102;2023-05-07T02:14:53;18.30;;;8.80;;
75488;SDS011;64069;46.396;48.102;2023-05-07T02:17:25;19.75;;;9.65;;
75488;SDS011;64069;46.396;48.102;2023-05-07T02:20:05;18.92;;;9.10;;
75488;SDS011;64069;46.396;48.102;2023-05-07T02:22:40;22.35;;;9.80;;
75488;SDS011;64069;46.396;48.102;2023-05-07T02:25:06;22.02;;;8.90;;
75488;SDS011;64069;46.396;48.102;2023-05-07T02:27:39;18.88;;;8.57;;
75488;SDS011;64069;46.396;48.102;2023-05-07T02:30:13;18.65;;;9.27;;
75488;SDS011;64069;46.396;48.102;2023-05-07T02:32:39;17.98;;;8.43;;
75488;SDS011;64069;46.396;48.102;2023-05-07T02:35:12;14.90;;;7.53;;
75488;SDS011;64069;46.396;48.102;2023-05-07T02:37:44;16.25;;;7.88;;
75488;SDS011;64069;46.396;48.102;2023-05-07T02:40:10;19.88;;;9.80;;
75488;SDS011;64069;46.396;48.102;2023-05-07T02:42:43;23.20;;;9.57;;
75488;SDS011;64069;46.396;48.102;2023-05-07T02:45:21;22.48;;;9.25;;
75488;SDS011;64069;46.396;48.102;2023-05-07T02:47:54;19.20;;;8.68;;
75488;SDS011;64069;46.396;48.102;2023-05-07T02:50:20;18.35;;;8.65;;
75488;SDS011;64069;46.396;48.102;2023-05-07T02:52:53;16.58;;;9.18;;
75488;SDS011;64069;46.396;48.102;2023-05-07T02:55:26;19.55;;;7.82;;
75488;SDS011;64069;46.396;48.102;2023-05-07T02:57:52;15.77;;;8.07;;
75488;SDS011;64069;46.396;48.102;2023-05-07T03:00:25;19.30;;;6.75;;
75488;SDS011;64069;46.396;48.102;2023-05-07T03:03:14;12.93;;;5.72;;
75488;SDS011;64069;46.396;48.102;2023-05-07T03:05:47;8.05;;;4.28;;
75488;SDS011;64069;46.396;48.102;2023-05-07T03:08:20;13.27;;;3.75;;
75488;SDS011;64069;46.396;48.102;2023-05-07T03:10:52;10.40;;;3.55;;
75488;SDS011;64069;46.396;48.102;2023-05-07T03:13:18;6.90;;;3.00;;
75488;SDS011;64069;46.396;48.102;2023-05-07T03:15:51;12.50;;;3.65;;
75488;SDS011;64069;46.396;48.102;2023-05-07T03:18:24;7.13;;;2.70;;
75488;SDS011;64069;46.396;48.102;2023-05-07T03:21:09;8.32;;;3.20;;
75488;SDS011;64069;46.396;48.102;2023-05-07T03:23:42;10.40;;;4.00;;
75488;SDS011;64069;46.396;48.102;2023-05-07T03:26:08;12.13;;;4.28;;
75488;SDS011;64069;46.396;48.102;2023-05-07T03:28:40;7.35;;;3.33;;
75488;SDS011;64069;46.396;48.102;2023-05-07T03:31:15;15.40;;;5.22;;
75488;SDS011;64069;46.396;48.102;2023-05-07T03:34:02;13.55;;;3.92;;
75488;SDS011;64069;46.396;48.102;2023-05-07T03:36:34;8.15;;;3.20;;
75488;SDS011;64069;46.396;48.102;2023-05-07T03:39:09;10.65;;;2.70;;
75488;SDS011;64069;46.396;48.102;2023-05-07T03:41:38;7.75;;;2.20;;
75488;SDS011;64069;46.396;48.102;2023-05-07T03:44:11;7.47;;;2.55;;
75488;SDS011;64069;46.396;48.102;2023-05-07T03:46:51;7.72;;;2.40;;
75488;SDS011;64069;46.396;48.102;2023-05-07T03:49:17;6.57;;;2.10;;
75488;SDS011;64069;46.396;48.102;2023-05-07T03:51:49;6.25;;;2.50;;
75488;SDS011;64069;46.396;48.102;2023-05-07T03:54:22;7.97;;;3.80;;
75488;SDS011;64069;46.396;48.102;2023-05-07T03:56:47;8.35;;;3.13;;
75488;SDS011;64069;46.396;48.102;2023-05-07T03:59:20;9.50;;;3.30;;
75488;SDS011;64069;46.396;48.102;2023-05-07T04:01:53;6.32;;;2.35;;
75488;SDS011;64069;46.396;48.102;2023-05-07T04:04:22;11.73;;;3.00;;
75488;SDS011;64069;46.396;48.102;2023-05-07T04:06:55;5.53;;;1.95;;
75488;SDS011;64069;46.396;48.102;2023-05-07T04:09:29;11.02;;;2.53;;
75488;SDS011;64069;46.396;48.102;2023-05-07T04:11:56;8.68;;;2.70;;
75488;SDS011;64069;46.396;48.102;2023-05-07T04:14:29;6.45;;;2.03;;
75488;SDS011;64069;46.396;48.102;2023-05-07T04:17:04;7.88;;;1.88;;
75488;SDS011;64069;46.396;48.102;2023-05-07T04:19:39;5.30;;;1.80;;
75488;SDS011;64069;46.396;48.102;2023-05-07T04:22:17;12.18;;;2.10;;
75488;SDS011;64069;46.396;48.102;2023-05-07T04:24:50;6.60;;;1.63;;
75488;SDS011;64069;46.396;48.102;2023-05-07T04:27:16;7.05;;;1.90;;
75488;SDS011;64069;46.396;48.102;2023-05-07T04:29:49;9.73;;;3.83;;
75488;SDS011;64069;46.396;48.102;2023-05-07T04:32:17;9.20;;;2.25;;
75488;SDS011;64069;46.396;48.102;2023-05-07T04:34:51;6.80;;;1.83;;
75488;SDS011;64069;46.396;48.102;2023-05-07T04:37:17;8.77;;;2.00;;
75488;SDS011;64069;46.396;48.102;2023-05-07T04:39:50;6.20;;;1.80;;
75488;SDS011;64069;46.396;48.102;2023-05-07T04:42:22;6.18;;;1.55;;
75488;SDS011;64069;46.396;48.102;2023-05-07T04:44:52;8.90;;;1.60;;
75488;SDS011;64069;46.396;48.102;2023-05-07T04:47:26;14.63;;;2.00;;
75488;SDS011;64069;46.396;48.102;2023-05-07T04:50:01;5.35;;;1.58;;
75488;SDS011;64069;46.396;48.102;2023-05-07T04:52:26;4.80;;;1.58;;
75488;SDS011;64069;46.396;48.102;2023-05-07T04:54:59;5.50;;;1.90;;
75488;SDS011;64069;46.396;48.102;2023-05-07T04:57:36;10.95;;;1.88;;
75488;SDS011;64069;46.396;48.102;2023-05-07T05:00:13;6.95;;;1.40;;
75488;SDS011;64069;46.396;48.102;2023-05-07T05:02:53;4.70;;;1.40;;
75488;SDS011;64069;46.396;48.102;2023-05-07T05:05:21;9.68;;;1.42;;
75488;SDS011;64069;46.396;48.102;2023-05-07T05:07:54;5.47;;;1.42;;
75488;SDS011;64069;46.396;48.102;2023-05-07T05:10:20;11.20;;;1.50;;
75488;SDS011;64069;46.396;48.102;2023-05-07T05:12:55;11.55;;;1.58;;
75488;SDS011;64069;46.396;48.102;2023-05-07T05:15:27;6.22;;;1.40;;
75488;SDS011;64069;46.396;48.102;2023-05-07T05:17:53;9.88;;;1.80;;
75488;SDS011;64069;46.396;48.102;2023-05-07T05:20:27;12.02;;;2.42;;
75488;SDS011;64069;46.396;48.102;2023-05-07T05:22:53;8.30;;;2.70;;
75488;SDS011;64069;46.396;48.102;2023-05-07T05:25:25;8.20;;;1.75;;
75488;SDS011;64069;46.396;48.102;2023-05-07T05:27:58;5.40;;;1.83;;
75488;SDS011;64069;46.396;48.102;2023-05-07T05:30:24;6.28;;;1.90;;
75488;SDS011;64069;46.396;48.102;2023-05-07T05:33:04;6.53;;;1.58;;
75488;SDS011;64069;46.396;48.102;2023-05-07T05:35:37;7.32;;;2.05;;
75488;SDS011;64069;46.396;48.102;2023-05-07T05:38:06;8.00;;;1.80;;
75488;SDS011;64069;46.396;48.102;2023-05-07T05:40:39;7.22;;;1.63;;
75488;SDS011;64069;46.396;48.102;2023-05-07T05:43:13;10.18;;;1.60;;
75488;SDS011;64069;46.396;48.102;2023-05-07T05:45:39;7.90;;;1.52;;
75488;SDS011;64069;46.396;48.102;2023-05-07T05:48:12;7.28;;;1.70;;
75488;SDS011;64069;46.396;48.102;2023-05-07T05:50:45;7.10;;;1.60;;
75488;SDS011;64069;46.396;48.102;2023-05-07T05:53:13;11.80;;;2.35;;
75488;SDS011;64069;46.396;48.102;2023-05-07T05:55:45;10.05;;;2.40;;
75488;SDS011;64069;46.396;48.102;2023-05-07T05:58:18;5.65;;;2.40;;
75488;SDS011;64069;46.396;48.102;2023-05-07T06:00:50;9.20;;;1.83;;
75488;SDS011;64069;46.396;48.102;2023-05-07T06:03:26;13.15;;;2.40;;
75488;SDS011;64069;46.396;48.102;2023-05-07T06:06:00;8.20;;;1.95;;
75488;SDS011;64069;46.396;48.102;2023-05-07T06:08:33;7.93;;;1.80;;
75488;SDS011;64069;46.396;48.102;2023-05-07T06:11:00;5.30;;;1.58;;
75488;SDS011;64069;46.396;48.102;2023-05-07T06:13:37;9.15;;;1.73;;
75488;SDS011;64069;46.396;48.102;2023-05-07T06:16:09;9.68;;;1.50;;
75488;SDS011;64069;46.396;48.102;2023-05-07T06:18:41;3.60;;;1.42;;
75488;SDS011;64069;46.396;48.102;2023-05-07T06:21:16;8.45;;;1.77;;
75488;SDS011;64069;46.396;48.102;2023-05-07T06:23:42;9.20;;;1.83;;
75488;SDS011;64069;46.396;48.102;2023-05-07T06:26:14;10.60;;;1.80;;
75488;SDS011;64069;46.396;48.102;2023-05-07T06:28:46;8.80;;;2.28;;
75488;SDS011;64069;46.396;48.102;2023-05-07T06:31:14;11.43;;;1.70;;
75488;SDS011;64069;46.396;48.102;2023-05-07T06:34:07;7.10;;;1.98;;
75488;SDS011;64069;46.396;48.102;2023-05-07T06:40:01;7.07;;;1.80;;
75488;SDS011;64069;46.396;48.102;2023-05-07T06:42:37;7.97;;;1.27;;
75488;SDS011;64069;46.396;48.102;2023-05-07T06:45:21;9.00;;;1.50;;
75488;SDS011;64069;46.396;48.102;2023-05-07T06:47:55;9.73;;;2.22;;
75488;SDS011;64069;46.396;48.102;2023-05-07T06:50:32;6.55;;;1.65;;
75488;SDS011;64069;46.396;48.102;2023-05-07T06:53:04;12.30;;;1.90;;
75488;SDS011;64069;46.396;48.102;2023-05-07T06:55:31;9.65;;;1.90;;
75488;SDS011;64069;46.396;48.102;2023-05-07T06:58:05;6.82;;;2.05;;
75488;SDS011;64069;46.396;48.102;2023-05-07T07:00:38;9.80;;;1.52;;
75488;SDS011;64069;46.396;48.102;2023-05-07T07:03:06;12.18;;;2.10;;
75488;SDS011;64069;46.396;48.102;2023-05-07T07:05:40;7.13;;;1.55;;
75488;SDS011;64069;46.396;48.102;2023-05-07T07:08:14;18.08;;;1.90;;
75488;SDS011;64069;46.396;48.102;2023-05-07T07:10:43;7.25;;;2.10;;
75488;SDS011;64069;46.396;48.102;2023-05-07T07:13:16;9.07;;;1.88;;
75488;SDS011;64069;46.396;48.102;2023-05-07T07:15:48;11.27;;;2.45;;
75488;SDS011;64069;46.396;48.102;2023-05-07T07:18:16;17.65;;;2.10;;
75488;SDS011;64069;46.396;48.102;2023-05-07T07:20:52;5.28;;;1.70;;
75488;SDS011;64069;46.396;48.102;2023-05-07T07:23:18;6.95;;;2.15;;
75488;SDS011;64069;46.396;48.102;2023-05-07T07:25:50;12.05;;;2.10;;
75488;SDS011;64069;46.396;48.102;2023-05-07T07:28:23;9.00;;;1.67;;
75488;SDS011;64069;46.396;48.102;2023-05-07T07:30:49;9.63;;;1.65;;
75488;SDS011;64069;46.396;48.102;2023-05-07T07:33:29;7.43;;;1.55;;
75488;SDS011;64069;46.396;48.102;2023-05-07T07:36:02;7.50;;;2.05;;
75488;SDS011;64069;46.396;48.102;2023-05-07T07:38:29;13.25;;;1.95;;
75488;SDS011;64069;46.396;48.102;2023-05-07T07:41:01;9.52;;;1.92;;
75488;SDS011;64069;46.396;48.102;2023-05-07T07:43:34;15.40;;;3.00;;
75488;SDS011;64069;46.396;48.102;2023-05-07T07:46:07;10.68;;;1.95;;
75488;SDS011;64069;46.396;48.102;2023-05-07T07:48:33;7.88;;;1.77;;
75488;SDS011;64069;46.396;48.102;2023-05-07T07:51:05;8.57;;;1.70;;
75488;SDS011;64069;46.396;48.102;2023-05-07T07:53:38;11.82;;;1.92;;
75488;SDS011;64069;46.396;48.102;2023-05-07T07:56:10;13.15;;;1.75;;
75488;SDS011;64069;46.396;48.102;2023-05-07T07:58:37;5.47;;;1.55;;
75488;SDS011;64069;46.396;48.102;2023-05-07T08:01:11;11.50;;;1.70;;
75488;SDS011;64069;46.396;48.102;2023-05-07T08:03:45;16.75;;;2.10;;
75488;SDS011;64069;46.396;48.102;2023-05-07T08:06:18;10.90;;;1.85;;
75488;SDS011;64069;46.396;48.102;2023-05-07T08:08:51;10.18;;;2.42;;
75488;SDS011;64069;46.396;48.102;2023-05-07T08:11:17;7.40;;;1.80;;
75488;SDS011;64069;46.396;48.102;2023-05-07T08:13:53;17.35;;;1.98;;
75488;SDS011;64069;46.396;48.102;2023-05-07T08:16:27;9.75;;;2.00;;
75488;SDS011;64069;46.396;48.102;2023-05-07T08:18:54;10.07;;;1.92;;
75488;SDS011;64069;46.396;48.102;2023-05-07T08:21:26;6.72;;;2.00;;
75488;SDS011;64069;46.396;48.102;2023-05-07T08:23:58;11.02;;;2.00;;
75488;SDS011;64069;46.396;48.102;2023-05-07T08:26:24;9.70;;;1.80;;
75488;SDS011;64069;46.396;48.102;2023-05-07T08:28:57;14.90;;;2.25;;
75488;SDS011;64069;46.396;48.102;2023-05-07T08:31:23;13.45;;;1.98;;
75488;SDS011;64069;46.396;48.102;2023-05-07T08:33:57;10.25;;;2.17;;
75488;SDS011;64069;46.396;48.102;2023-05-07T08:36:41;17.85;;;1.90;;
75488;SDS011;64069;46.396;48.102;2023-05-07T08:39:16;11.65;;;1.65;;
75488;SDS011;64069;46.396;48.102;2023-05-07T08:41:45;10.43;;;2.90;;
75488;SDS011;64069;46.396;48.102;2023-05-07T08:44:20;6.25;;;1.70;;
75488;SDS011;64069;46.396;48.102;2023-05-07T08:46:56;7.25;;;1.88;;
75488;SDS011;64069;46.396;48.102;2023-05-07T08:49:30;8.50;;;1.63;;
75488;SDS011;64069;46.396;48.102;2023-05-07T08:52:06;9.45;;;2.17;;
75488;SDS011;64069;46.396;48.102;2023-05-07T08:54:32;14.48;;;2.97;;
75488;SDS011;64069;46.396;48.102;2023-05-07T08:57:07;7.57;;;1.60;;
75488;SDS011;64069;46.396;48.102;2023-05-07T08:59:40;7.63;;;1.70;;
75488;SDS011;64069;46.396;48.102;2023-05-07T09:02:14;14.48;;;2.00;;
75488;SDS011;64069;46.396;48.102;2023-05-07T09:04:40;4.97;;;1.63;;
75488;SDS011;64069;46.396;48.102;2023-05-07T09:07:13;12.25;;;1.80;;
75488;SDS011;64069;46.396;48.102;2023-05-07T09:09:46;11.73;;;1.80;;
75488;SDS011;64069;46.396;48.102;2023-05-07T09:12:19;6.63;;;1.90;;
75488;SDS011;64069;46.396;48.102;2023-05-07T09:14:45;8.13;;;2.72;;
75488;SDS011;64069;46.396;48.102;2023-05-07T09:17:18;10.98;;;1.90;;
75488;SDS011;64069;46.396;48.102;2023-05-07T09:19:50;9.80;;;1.73;;
75488;SDS011;64069;46.396;48.102;2023-05-07T09:22:23;13.05;;;2.70;;
75488;SDS011;64069;46.396;48.102;2023-05-07T09:25:03;10.38;;;1.90;;
75488;SDS011;64069;46.396;48.102;2023-05-07T09:27:37;10.85;;;2.72;;
75488;SDS011;64069;46.396;48.102;2023-05-07T09:30:10;11.52;;;1.83;;
75488;SDS011;64069;46.396;48.102;2023-05-07T09:32:50;7.65;;;1.75;;
75488;SDS011;64069;46.396;48.102;2023-05-07T09:35:23;7.15;;;1.98;;
75488;SDS011;64069;46.396;48.102;2023-05-07T09:37:57;12.23;;;2.22;;
75488;SDS011;64069;46.396;48.102;2023-05-07T09:40:33;7.38;;;1.70;;
75488;SDS011;64069;46.396;48.102;2023-05-07T09:43:11;8.82;;;2.17;;
75488;SDS011;64069;46.396;48.102;2023-05-07T09:45:54;4.85;;;1.58;;
75488;SDS011;64069;46.396;48.102;2023-05-07T09:48:41;9.80;;;2.50;;
75488;SDS011;64069;46.396;48.102;2023-05-07T09:53:50;9.85;;;1.90;;
75488;SDS011;64069;46.396;48.102;2023-05-07T09:56:24;9.07;;;2.05;;
75488;SDS011;64069;46.396;48.102;2023-05-07T09:59:01;10.13;;;2.28;;
75488;SDS011;64069;46.396;48.102;2023-05-07T10:01:35;6.57;;;2.20;;
75488;SDS011;64069;46.396;48.102;2023-05-07T10:04:02;9.95;;;2.35;;
75488;SDS011;64069;46.396;48.102;2023-05-07T10:06:44;9.25;;;2.53;;
75488;SDS011;64069;46.396;48.102;2023-05-07T10:09:17;13.45;;;2.90;;
75488;SDS011;64069;46.396;48.102;2023-05-07T10:11:45;6.93;;;2.00;;
75488;SDS011;64069;46.396;48.102;2023-05-07T10:14:22;12.63;;;1.85;;
75488;SDS011;64069;46.396;48.102;2023-05-07T10:16:49;12.30;;;2.45;;
75488;SDS011;64069;46.396;48.102;2023-05-07T10:19:25;11.13;;;2.08;;
75488;SDS011;64069;46.396;48.102;2023-05-07T10:22:01;9.82;;;2.38;;
75488;SDS011;64069;46.396;48.102;2023-05-07T10:24:42;11.70;;;2.10;;
75488;SDS011;64069;46.396;48.102;2023-05-07T10:27:20;13.55;;;2.33;;
75488;SDS011;64069;46.396;48.102;2023-05-07T10:29:54;18.93;;;3.10;;
75488;SDS011;64069;46.396;48.102;2023-05-07T10:32:38;12.93;;;2.22;;
75488;SDS011;64069;46.396;48.102;2023-05-07T10:35:29;5.07;;;1.95;;
75488;SDS011;64069;46.396;48.102;2023-05-07T10:38:04;14.27;;;1.92;;
75488;SDS011;64069;46.396;48.102;2023-05-07T10:40:33;7.57;;;2.05;;
75488;SDS011;64069;46.396;48.102;2023-05-07T10:43:07;19.02;;;2.60;;
75488;SDS011;64069;46.396;48.102;2023-05-07T10:49:13;8.85;;;1.65;;
75488;SDS011;64069;46.396;48.102;2023-05-07T10:55:21;6.47;;;1.80;;
75488;SDS011;64069;46.396;48.102;2023-05-07T10:58:29;15.30;;;2.42;;
75488;SDS011;64069;46.396;48.102;2023-05-07T11:01:15;7.57;;;2.10;;
75488;SDS011;64069;46.396;48.102;2023-05-07T11:08:04;8.23;;;1.90;;
75488;SDS011;64069;46.396;48.102;2023-05-07T11:11:01;13.23;;;1.73;;
75488;SDS011;64069;46.396;48.102;2023-05-07T11:13:43;22.13;;;4.20;;
75488;SDS011;64069;46.396;48.102;2023-05-07T11:16:43;19.83;;;2.83;;
75488;SDS011;64069;46.396;48.102;2023-05-07T11:22:58;10.40;;;2.28;;
75488;SDS011;64069;46.396;48.102;2023-05-07T11:25:44;9.63;;;1.92;;
75488;SDS011;64069;46.396;48.102;2023-05-07T11:28:20;9.18;;;2.00;;
75488;SDS011;64069;46.396;48.102;2023-05-07T11:31:00;6.97;;;1.80;;
75488;SDS011;64069;46.396;48.102;2023-05-07T11:33:35;9.43;;;1.70;;
75488;SDS011;64069;46.396;48.102;2023-05-07T11:36:04;13.10;;;3.08;;
75488;SDS011;64069;46.396;48.102;2023-05-07T11:38:43;10.95;;;2.10;;
75488;SDS011;64069;46.396;48.102;2023-05-07T11:41:16;10.10;;;2.20;;
75488;SDS011;64069;46.396;48.102;2023-05-07T11:43:54;10.85;;;2.90;;
75488;SDS011;64069;46.396;48.102;2023-05-07T11:46:29;9.35;;;2.42;;
75488;SDS011;64069;46.396;48.102;2023-05-07T11:49:09;13.85;;;2.08;;
75488;SDS011;64069;46.396;48.102;2023-05-07T11:51:41;10.25;;;2.13;;
75488;SDS011;64069;46.396;48.102;2023-05-07T11:54:17;10.57;;;1.83;;
75488;SDS011;64069;46.396;48.102;2023-05-07T11:56:43;9.50;;;2.38;;
75488;SDS011;64069;46.396;48.102;2023-05-07T11:59:17;10.00;;;2.40;;
75488;SDS011;64069;46.396;48.102;2023-05-07T12:01:49;12.52;;;1.95;;
75488;SDS011;64069;46.396;48.102;2023-05-07T12:04:18;15.18;;;2.28;;
75488;SDS011;64069;46.396;48.102;2023-05-07T12:06:55;9.07;;;2.20;;
75488;SDS011;64069;46.396;48.102;2023-05-07T12:09:28;9.73;;;2.05;;
75488;SDS011;64069;46.396;48.102;2023-05-07T12:11:54;9.90;;;1.75;;
75488;SDS011;64069;46.396;48.102;2023-05-07T12:14:27;11.20;;;1.92;;
75488;SDS011;64069;46.396;48.102;2023-05-07T12:17:00;11.70;;;2.17;;
75488;SDS011;64069;46.396;48.102;2023-05-07T12:19:39;6.95;;;1.95;;
75488;SDS011;64069;46.396;48.102;2023-05-07T12:22:14;9.45;;;2.40;;
75488;SDS011;64069;46.396;48.102;2023-05-07T12:24:44;11.48;;;2.90;;
75488;SDS011;64069;46.396;48.102;2023-05-07T12:27:18;15.70;;;5.25;;
75488;SDS011;64069;46.396;48.102;2023-05-07T12:29:51;12.70;;;3.15;;
75488;SDS011;64069;46.396;48.102;2023-05-07T12:32:23;7.70;;;1.73;;
75488;SDS011;64069;46.396;48.102;2023-05-07T12:34:49;10.60;;;2.03;;
75488;SDS011;64069;46.396;48.102;2023-05-07T12:37:24;16.23;;;4.13;;
75488;SDS011;64069;46.396;48.102;2023-05-07T12:40:09;9.23;;;2.10;;
75488;SDS011;64069;46.396;48.102;2023-05-07T12:42:42;18.48;;;2.65;;
75488;SDS011;64069;46.396;48.102;2023-05-07T12:45:14;7.65;;;2.25;;
75488;SDS011;64069;46.396;48.102;2023-05-07T12:47:47;10.45;;;2.15;;
75488;SDS011;64069;46.396;48.102;2023-05-07T12:50:30;17.33;;;2.30;;
75488;SDS011;64069;46.396;48.102;2023-05-07T12:53:04;7.22;;;2.08;;
75488;SDS011;64069;46.396;48.102;2023-05-07T12:55:43;12.77;;;2.50;;
75488;SDS011;64069;46.396;48.102;2023-05-07T13:00:50;10.68;;;3.28;;
75488;SDS011;64069;46.396;48.102;2023-05-07T13:03:24;10.68;;;2.60;;
75488;SDS011;64069;46.396;48.102;2023-05-07T13:06:01;10.00;;;2.58;;
75488;SDS011;64069;46.396;48.102;2023-05-07T13:08:37;12.75;;;2.28;;
75488;SDS011;64069;46.396;48.102;2023-05-07T13:11:15;11.75;;;2.90;;
75488;SDS011;64069;46.396;48.102;2023-05-07T13:13:48;12.02;;;2.95;;
75488;SDS011;64069;46.396;48.102;2023-05-07T13:16:14;8.15;;;2.50;;
75488;SDS011;64069;46.396;48.102;2023-05-07T13:18:46;13.65;;;3.63;;
75488;SDS011;64069;46.396;48.102;2023-05-07T13:21:18;11.15;;;3.92;;
75488;SDS011;64069;46.396;48.102;2023-05-07T13:23:57;18.30;;;3.10;;
75488;SDS011;64069;46.396;48.102;2023-05-07T13:26:31;11.25;;;2.65;;
75488;SDS011;64069;46.396;48.102;2023-05-07T13:29:03;13.57;;;3.15;;
75488;SDS011;64069;46.396;48.102;2023-05-07T13:31:29;14.10;;;3.00;;
75488;SDS011;64069;46.396;48.102;2023-05-07T13:34:02;9.93;;;2.45;;
75488;SDS011;64069;46.396;48.102;2023-05-07T13:36:28;16.25;;;3.70;;
75488;SDS011;64069;46.396;48.102;2023-05-07T13:39:00;10.85;;;4.07;;
75488;SDS011;64069;46.396;48.102;2023-05-07T13:41:32;13.60;;;3.47;;
75488;SDS011;64069;46.396;48.102;2023-05-07T13:43:58;9.65;;;2.10;;
75488;SDS011;64069;46.396;48.102;2023-05-07T13:46:30;13.60;;;2.58;;
75488;SDS011;64069;46.396;48.102;2023-05-07T13:49:03;14.38;;;4.60;;
75488;SDS011;64069;46.396;48.102;2023-05-07T13:51:29;14.20;;;4.38;;
75488;SDS011;64069;46.396;48.102;2023-05-07T13:54:02;13.43;;;3.20;;
75488;SDS011;64069;46.396;48.102;2023-05-07T13:56:35;10.25;;;2.55;;
75488;SDS011;64069;46.396;48.102;2023-05-07T13:59:01;22.42;;;3.38;;
75488;SDS011;64069;46.396;48.102;2023-05-07T14:01:34;14.60;;;4.00;;
75488;SDS011;64069;46.396;48.102;2023-05-07T14:04:06;16.67;;;4.65;;
75488;SDS011;64069;46.396;48.102;2023-05-07T14:06:41;10.90;;;3.22;;
75488;SDS011;64069;46.396;48.102;2023-05-07T14:09:07;24.45;;;4.15;;
75488;SDS011;64069;46.396;48.102;2023-05-07T14:11:39;21.77;;;4.25;;
75488;SDS011;64069;46.396;48.102;2023-05-07T14:14:11;14.93;;;5.15;;
75488;SDS011;64069;46.396;48.102;2023-05-07T14:16:37;14.10;;;4.25;;
75488;SDS011;64069;46.396;48.102;2023-05-07T14:19:09;12.88;;;4.63;;
75488;SDS011;64069;46.396;48.102;2023-05-07T14:21:36;15.80;;;6.13;;
75488;SDS011;64069;46.396;48.102;2023-05-07T14:24:08;18.92;;;6.60;;
75488;SDS011;64069;46.396;48.102;2023-05-07T14:26:41;17.77;;;5.82;;
75488;SDS011;64069;46.396;48.102;2023-05-07T14:29:07;15.57;;;5.93;;
75488;SDS011;64069;46.396;48.102;2023-05-07T14:31:39;18.58;;;4.50;;
75488;SDS011;64069;46.396;48.102;2023-05-07T14:34:11;20.13;;;5.05;;
75488;SDS011;64069;46.396;48.102;2023-05-07T14:36:44;13.20;;;5.18;;
75488;SDS011;64069;46.396;48.102;2023-05-07T14:39:10;14.82;;;5.63;;
75488;SDS011;64069;46.396;48.102;2023-05-07T14:41:42;18.75;;;5.65;;
75488;SDS011;64069;46.396;48.102;2023-05-07T14:44:14;20.52;;;5.30;;
75488;SDS011;64069;46.396;48.102;2023-05-07T14:46:47;15.95;;;6.40;;
75488;SDS011;64069;46.396;48.102;2023-05-07T14:49:27;21.70;;;8.60;;
75488;SDS011;64069;46.396;48.102;2023-05-07T14:51:53;32.95;;;9.82;;
75488;SDS011;64069;46.396;48.102;2023-05-07T14:54:25;31.45;;;11.98;;
75488;SDS011;64069;46.396;48.102;2023-05-07T14:56:58;30.25;;;11.40;;
75488;SDS011;64069;46.396;48.102;2023-05-07T14:59:24;36.58;;;14.23;;
75488;SDS011;64069;46.396;48.102;2023-05-07T15:01:57;37.53;;;15.75;;
75488;SDS011;64069;46.396;48.102;2023-05-07T15:04:30;28.08;;;11.60;;
75488;SDS011;64069;46.396;48.102;2023-05-07T15:06:56;29.30;;;9.50;;
75488;SDS011;64069;46.396;48.102;2023-05-07T15:09:28;22.00;;;7.00;;
75488;SDS011;64069;46.396;48.102;2023-05-07T15:12:01;18.00;;;6.28;;
75488;SDS011;64069;46.396;48.102;2023-05-07T15:14:27;25.25;;;8.90;;
75488;SDS011;64069;46.396;48.102;2023-05-07T15:17:00;29.52;;;8.82;;
75488;SDS011;64069;46.396;48.102;2023-05-07T15:19:32;24.77;;;8.07;;
75488;SDS011;64069;46.396;48.102;2023-05-07T15:21:59;25.52;;;9.00;;